createdAt,value
2022-10-05T00:01:25.941Z,97860.72
2022-10-05T00:04:29.176Z,97854.00
2022-10-05T00:07:33.391Z,97847.44
2022-10-05T00:10:36.230Z,97848.28
2022-10-05T00:13:41.018Z,97851.06
2022-10-05T00:16:44.305Z,97831.16
2022-10-05T00:19:52.107Z,97828.03
2022-10-05T00:22:58.724Z,97835.09
2022-10-05T00:26:12.958Z,97815.38
2022-10-05T00:29:22.640Z,97816.88
2022-10-05T00:32:25.595Z,97815.22
2022-10-05T00:35:30.837Z,97815.06
2022-10-05T00:38:35.052Z,97816.06
2022-10-05T00:41:53.969Z,97810.91
2022-10-05T00:45:03.122Z,97826.06
2022-10-05T00:48:19.762Z,97822.13
2022-10-05T00:51:27.745Z,97814.22
2022-10-05T00:54:41.332Z,97814.53
2022-10-05T00:57:54.947Z,97822.56
2022-10-05T01:01:07.662Z,97813.88
2022-10-05T01:04:18.057Z,97816.34
2022-10-05T01:07:33.554Z,97809.97
2022-10-05T01:10:44.316Z,97816.38
2022-10-05T01:13:54.044Z,97813.91
2022-10-05T01:17:02.954Z,97797.66
2022-10-05T01:20:28.269Z,97788.78
2022-10-05T01:24:26.966Z,97799.44
2022-10-05T01:27:55.413Z,97795.50
2022-10-05T01:31:07.123Z,97785.81
2022-10-05T01:34:18.023Z,97786.97
2022-10-05T01:37:27.253Z,97781.41
2022-10-05T01:40:38.313Z,97781.53
2022-10-05T01:43:47.957Z,97782.38
2022-10-05T01:46:59.663Z,97784.50
2022-10-05T01:50:05.604Z,97777.44
2022-10-05T01:53:16.810Z,97775.16
2022-10-05T01:56:31.490Z,97772.53
2022-10-05T01:59:51.037Z,97783.34
2022-10-05T02:02:59.071Z,97779.09
2022-10-05T02:06:07.716Z,97769.72
2022-10-05T02:09:16.176Z,97764.94
2022-10-05T02:12:22.511Z,97760.34
2022-10-05T02:15:31.151Z,97765.78
2022-10-05T02:18:39.122Z,97772.34
2022-10-05T02:21:44.761Z,97769.88
2022-10-05T02:24:52.907Z,97780.22
2022-10-05T02:28:02.309Z,97775.31
2022-10-05T02:31:12.251Z,97775.78
2022-10-05T02:34:23.973Z,97772.19
2022-10-05T02:37:35.341Z,97758.06
2022-10-05T02:40:50.882Z,97751.47
2022-10-05T02:44:03.171Z,97750.50
2022-10-05T02:47:17.429Z,97740.63
2022-10-05T02:50:27.192Z,97742.28
2022-10-05T02:53:39.519Z,97740.16
2022-10-05T02:56:52.200Z,97744.59
2022-10-05T03:00:05.118Z,97734.88
2022-10-05T03:03:20.515Z,97731.91
2022-10-05T03:06:28.382Z,97737.66
2022-10-05T03:09:38.564Z,97751.16
2022-10-05T03:12:53.533Z,97749.19
2022-10-05T03:16:12.386Z,97736.88
2022-10-05T03:19:32.456Z,97734.72
2022-10-05T03:22:48.027Z,97740.16
2022-10-05T03:26:09.958Z,97739.66
2022-10-05T03:29:27.191Z,97738.66
2022-10-05T03:32:40.948Z,97733.72
2022-10-05T03:35:53.079Z,97742.91
2022-10-05T03:39:04.057Z,97735.53
2022-10-05T03:42:16.815Z,97731.41
2022-10-05T03:45:28.758Z,97728.44
2022-10-05T03:48:39.127Z,97732.22
2022-10-05T03:51:48.053Z,97729.28
2022-10-05T03:54:55.714Z,97733.06
2022-10-05T03:58:04.270Z,97734.06
2022-10-05T04:01:14.419Z,97734.38
2022-10-05T04:04:24.850Z,97750.81
2022-10-05T04:07:37.426Z,97744.56
2022-10-05T04:10:45.119Z,97744.91
2022-10-05T04:13:53.071Z,97746.34
2022-10-05T04:17:00.697Z,97738.31
2022-10-05T04:20:08.909Z,97736.31
2022-10-05T04:23:20.529Z,97735.00
2022-10-05T04:26:32.057Z,97731.72
2022-10-05T04:29:41.058Z,97738.31
2022-10-05T04:32:45.757Z,97736.19
2022-10-05T04:36:13.931Z,97744.22
2022-10-05T04:39:29.748Z,97753.09
2022-10-05T04:42:37.931Z,97743.44
2022-10-05T04:45:56.662Z,97744.75
2022-10-05T04:49:15.463Z,97748.22
2022-10-05T04:52:26.644Z,97751.97
2022-10-05T04:55:41.207Z,97751.66
2022-10-05T04:59:01.562Z,97751.47
2022-10-05T05:02:14.880Z,97749.66
2022-10-05T05:05:53.045Z,97762.94
2022-10-05T05:09:27.736Z,97767.84
2022-10-05T05:12:45.597Z,97767.69
2022-10-05T05:15:54.047Z,97770.50
2022-10-05T05:19:34.798Z,97783.25
2022-10-05T05:22:47.990Z,97779.63
2022-10-05T05:26:00.789Z,97788.16
2022-10-05T05:29:15.608Z,97792.75
2022-10-05T05:32:28.242Z,97787.50
2022-10-05T05:36:04.181Z,97803.94
2022-10-05T05:39:22.915Z,97810.19
2022-10-05T05:42:35.326Z,97817.78
2022-10-05T05:45:43.643Z,97827.69
2022-10-05T05:48:48.913Z,97826.03
2022-10-05T05:52:00.624Z,97834.59
2022-10-05T05:55:15.238Z,97845.63
2022-10-05T05:58:24.642Z,97844.31
2022-10-05T06:01:34.773Z,97841.53
2022-10-05T06:04:49.063Z,97849.09
2022-10-05T06:07:53.929Z,97845.47
2022-10-05T06:11:02.466Z,97839.72
2022-10-05T06:14:11.630Z,97850.06
2022-10-05T06:17:20.998Z,97840.84
2022-10-05T06:20:29.042Z,97839.69
2022-10-05T06:23:40.457Z,97842.50
2022-10-05T06:27:17.058Z,97830.16
2022-10-05T06:30:20.221Z,97827.34
2022-10-05T06:33:49.413Z,97823.03
2022-10-05T06:37:01.169Z,97814.13
2022-10-05T06:40:24.543Z,97801.28
2022-10-05T06:43:41.791Z,97800.28
2022-10-05T06:47:19.193Z,97798.56
2022-10-05T06:50:48.399Z,97798.19
2022-10-05T06:54:10.465Z,97807.25
2022-10-05T06:57:40.531Z,97799.94
2022-10-05T07:00:50.973Z,97801.06
2022-10-05T07:04:18.884Z,97800.16
2022-10-05T07:07:31.497Z,97802.72
2022-10-05T07:10:42.442Z,97787.59
2022-10-05T07:14:09.273Z,97793.38
2022-10-05T07:17:26.403Z,97783.84
2022-10-05T07:20:34.854Z,97785.63
2022-10-05T07:23:49.149Z,97783.97
2022-10-05T07:26:58.789Z,97774.16
2022-10-05T07:30:04.643Z,97778.94
2022-10-05T07:33:18.782Z,97757.34
2022-10-05T07:36:54.427Z,97742.84
2022-10-05T07:40:09.844Z,97731.44
2022-10-05T07:43:29.253Z,97725.06
2022-10-05T07:46:51.122Z,97729.34
2022-10-05T07:50:01.766Z,97728.97
2022-10-05T07:53:14.344Z,97731.50
2022-10-05T07:56:26.814Z,97724.00
2022-10-05T07:59:35.835Z,97729.78
2022-10-05T08:02:45.449Z,97732.34
2022-10-05T08:05:48.509Z,97736.13
2022-10-05T08:08:57.401Z,97728.13
2022-10-05T08:12:11.589Z,97731.03
2022-10-05T08:15:17.461Z,97723.53
2022-10-05T08:18:38.097Z,97725.03
2022-10-05T08:21:45.695Z,97718.59
2022-10-05T08:24:56.972Z,97711.25
2022-10-05T08:28:07.379Z,97708.00
2022-10-05T08:31:17.874Z,97703.91
2022-10-05T08:34:27.541Z,97701.06
2022-10-05T08:37:35.592Z,97705.16
2022-10-05T08:41:26.875Z,97702.97
2022-10-05T08:44:59.247Z,97691.78
2022-10-05T08:48:22.946Z,97686.84
2022-10-05T08:51:49.978Z,97690.13
2022-10-05T08:55:24.266Z,97677.22
2022-10-05T08:58:58.653Z,97682.34
2022-10-05T09:02:21.644Z,97692.34
2022-10-05T09:05:44.798Z,97682.56
2022-10-05T09:09:02.272Z,97671.09
2022-10-05T09:12:33.196Z,97677.44
2022-10-05T09:15:58.487Z,97672.75
2022-10-05T09:19:28.054Z,97658.44
2022-10-05T09:23:11.054Z,97659.22
2022-10-05T09:26:44.064Z,97659.00
2022-10-05T09:30:18.480Z,97662.28
2022-10-05T09:34:10.604Z,97659.59
2022-10-05T09:37:49.322Z,97665.47
2022-10-05T09:41:42.117Z,97671.75
2022-10-05T09:45:21.147Z,97676.63
2022-10-05T09:48:57.737Z,97686.25
2022-10-05T09:52:18.772Z,97686.44
2022-10-05T09:56:01.310Z,97699.66
2022-10-05T09:59:48.778Z,97708.38
2022-10-05T10:03:24.271Z,97710.06
2022-10-05T10:06:47.566Z,97709.66
2022-10-05T10:10:21.462Z,97715.91
2022-10-05T10:14:05.541Z,97709.81
2022-10-05T10:17:33.554Z,97712.06
2022-10-05T10:21:14.849Z,97715.78
2022-10-05T10:24:36.223Z,97715.00
2022-10-05T10:28:04.550Z,97717.63
2022-10-05T10:31:32.810Z,97725.16
2022-10-05T10:35:00.804Z,97725.38
2022-10-05T10:38:31.042Z,97718.81
2022-10-05T10:41:58.888Z,97721.28
2022-10-05T10:45:33.890Z,97723.72
2022-10-05T10:48:54.005Z,97721.28
2022-10-05T10:52:23.373Z,97710.25
2022-10-05T10:55:34.983Z,97713.94
2022-10-05T10:58:58.660Z,97717.03
2022-10-05T11:02:30.129Z,97711.44
2022-10-05T11:05:58.924Z,97712.66
2022-10-05T11:09:26.073Z,97713.16
2022-10-05T11:12:58.105Z,97713.84
2022-10-05T11:16:35.050Z,97712.00
2022-10-05T11:20:03.518Z,97701.50
2022-10-05T11:23:38.789Z,97699.41
2022-10-05T11:27:08.382Z,97715.22
2022-10-05T11:30:27.433Z,97714.06
2022-10-05T11:34:03.249Z,97700.41
2022-10-05T11:37:31.955Z,97697.88
2022-10-05T11:40:58.806Z,97686.28
2022-10-05T11:44:43.016Z,97700.34
2022-10-05T11:47:58.451Z,97705.28
2022-10-05T11:51:35.378Z,97692.81
2022-10-05T11:55:10.361Z,97690.59
2022-10-05T11:58:21.954Z,97679.94
2022-10-05T12:01:30.482Z,97683.19
2022-10-05T12:04:46.606Z,97672.78
2022-10-05T12:08:04.003Z,97666.22
2022-10-05T12:11:16.952Z,97665.66
2022-10-05T12:14:28.993Z,97667.38
2022-10-05T12:17:37.685Z,97653.66
2022-10-05T12:20:47.022Z,97655.72
2022-10-05T12:23:54.904Z,97654.31
2022-10-05T12:27:02.988Z,97644.47
2022-10-05T12:30:16.082Z,97654.09
2022-10-05T12:33:25.809Z,97652.63
2022-10-05T12:37:02.488Z,97656.53
2022-10-05T12:40:06.187Z,97643.50
2022-10-05T12:43:21.442Z,97644.28
2022-10-05T12:46:35.066Z,97634.25
2022-10-05T12:49:51.178Z,97637.97
2022-10-05T12:53:09.530Z,97652.59
2022-10-05T12:56:21.600Z,97649.84
2022-10-05T12:59:36.777Z,97654.16
2022-10-05T13:02:47.021Z,97672.25
2022-10-05T13:05:59.049Z,97677.44
2022-10-05T13:09:13.014Z,97675.34
2022-10-05T13:12:29.843Z,97673.53
2022-10-05T13:15:37.308Z,97674.41
2022-10-05T13:18:54.383Z,97687.47
2022-10-05T13:22:26.563Z,97689.84
2022-10-05T13:25:33.754Z,97689.06
2022-10-05T13:28:42.812Z,97688.13
2022-10-05T13:31:49.019Z,97678.03
2022-10-05T13:35:01.457Z,97684.94
2022-10-05T13:38:12.452Z,97678.69
2022-10-05T13:41:25.911Z,97687.06
2022-10-05T13:44:36.196Z,97678.47
2022-10-05T13:47:51.861Z,97690.88
2022-10-05T13:51:06.974Z,97676.94
2022-10-05T13:54:19.169Z,97674.03
2022-10-05T13:57:36.259Z,97676.38
2022-10-05T14:00:47.945Z,97680.47
2022-10-05T14:04:11.121Z,97675.59
2022-10-05T14:07:31.338Z,97677.22
2022-10-05T14:10:40.322Z,97683.44
2022-10-05T14:13:47.588Z,97673.25
2022-10-05T14:16:53.584Z,97681.81
2022-10-05T14:19:59.943Z,97674.09
2022-10-05T14:23:12.081Z,97666.94
2022-10-05T14:26:33.573Z,97669.25
2022-10-05T14:29:39.245Z,97670.28
2022-10-05T14:32:49.823Z,97667.72
2022-10-05T14:35:54.721Z,97668.38
2022-10-05T14:39:02.081Z,97674.53
2022-10-05T14:42:15.893Z,97670.88
2022-10-05T14:45:21.645Z,97665.69
2022-10-05T14:48:27.948Z,97660.88
2022-10-05T14:51:33.208Z,97670.56
2022-10-05T14:54:54.043Z,97661.06
2022-10-05T14:58:11.259Z,97654.56
2022-10-05T15:01:24.110Z,97659.06
2022-10-05T15:04:49.946Z,97657.09
2022-10-05T15:07:58.088Z,97648.47
2022-10-05T15:11:07.626Z,97641.38
2022-10-05T15:14:18.574Z,97642.09
2022-10-05T15:17:27.076Z,97633.47
2022-10-05T15:20:37.210Z,97630.16
2022-10-05T15:23:47.336Z,97626.25
2022-10-05T15:26:54.643Z,97628.47
2022-10-05T15:30:06.328Z,97620.78
2022-10-05T15:33:16.114Z,97607.97
2022-10-05T15:36:24.299Z,97604.91
2022-10-05T15:39:35.348Z,97605.34
2022-10-05T15:42:41.647Z,97595.81
2022-10-05T15:45:53.915Z,97601.34
2022-10-05T15:49:12.809Z,97595.28
2022-10-05T15:52:26.131Z,97581.34
2022-10-05T15:55:44.195Z,97576.97
2022-10-05T15:58:55.502Z,97570.66
2022-10-05T16:02:01.871Z,97564.38
2022-10-05T16:05:40.781Z,97572.66
2022-10-05T16:08:55.779Z,97569.00
2022-10-05T16:12:07.314Z,97568.44
2022-10-05T16:15:22.193Z,97580.00
2022-10-05T16:18:55.091Z,97576.69
2022-10-05T16:22:06.200Z,97571.97
2022-10-05T16:25:16.378Z,97570.59
2022-10-05T16:28:29.910Z,97568.44
2022-10-05T16:31:41.568Z,97563.31
2022-10-05T16:34:57.890Z,97565.19
2022-10-05T16:38:09.876Z,97568.53
2022-10-05T16:41:20.280Z,97568.28
2022-10-05T16:44:35.749Z,97568.97
2022-10-05T16:47:50.282Z,97575.50
2022-10-05T16:51:07.600Z,97567.41
2022-10-05T16:54:19.136Z,97563.88
2022-10-05T16:57:24.937Z,97560.75
2022-10-05T17:00:38.687Z,97561.22
2022-10-05T17:03:58.303Z,97558.16
2022-10-05T17:07:22.008Z,97564.50
2022-10-05T17:10:43.060Z,97567.59
2022-10-05T17:14:00.342Z,97557.00
2022-10-05T17:17:23.613Z,97559.41
2022-10-05T17:20:46.084Z,97555.78
2022-10-05T17:23:54.870Z,97556.16
2022-10-05T17:27:03.662Z,97563.09
2022-10-05T17:30:48.579Z,97553.13
2022-10-05T17:34:27.355Z,97554.97
2022-10-05T17:37:38.438Z,97548.84
2022-10-05T17:41:03.320Z,97543.31
2022-10-05T17:44:27.782Z,97547.63
2022-10-05T17:47:58.667Z,97547.22
2022-10-05T17:51:19.320Z,97554.16
2022-10-05T17:54:42.830Z,97558.66
2022-10-05T17:57:45.846Z,97558.84
2022-10-05T18:01:20.402Z,97559.88
2022-10-05T18:04:46.175Z,97564.16
2022-10-05T18:08:09.891Z,97565.56
2022-10-05T18:11:35.468Z,97564.53
2022-10-05T18:14:57.148Z,97572.09
2022-10-05T18:18:32.866Z,97568.81
2022-10-05T18:21:38.881Z,97567.16
2022-10-05T18:25:03.951Z,97569.16
2022-10-05T18:28:21.828Z,97580.16
2022-10-05T18:31:34.307Z,97572.81
2022-10-05T18:34:43.589Z,97580.63
2022-10-05T18:37:57.264Z,97578.19
2022-10-05T18:41:09.221Z,97584.09
2022-10-05T18:44:31.069Z,97583.88
2022-10-05T18:47:42.645Z,97591.63
2022-10-05T18:50:52.766Z,97589.97
2022-10-05T18:54:09.286Z,97594.03
2022-10-05T18:57:37.701Z,97603.81
2022-10-05T19:01:09.772Z,97605.91
2022-10-05T19:04:24.669Z,97613.13
2022-10-05T19:07:34.584Z,97615.00
2022-10-05T19:10:44.626Z,97614.41
2022-10-05T19:13:55.817Z,97623.75
2022-10-05T19:17:24.780Z,97618.88
2022-10-05T19:20:34.143Z,97614.75
2022-10-05T19:23:57.589Z,97616.16
2022-10-05T19:27:10.615Z,97629.47
2022-10-05T19:30:20.835Z,97630.09
2022-10-05T19:33:46.821Z,97630.53
2022-10-05T19:37:04.514Z,97638.94
2022-10-05T19:40:17.774Z,97640.13
2022-10-05T19:43:40.506Z,97646.28
2022-10-05T19:46:55.137Z,97645.28
2022-10-05T19:50:03.458Z,97636.94
2022-10-05T19:53:13.317Z,97644.25
2022-10-05T19:56:21.189Z,97654.84
2022-10-05T19:59:27.588Z,97659.34
2022-10-05T20:02:32.030Z,97665.28
2022-10-05T20:05:36.582Z,97663.41
2022-10-05T20:08:41.869Z,97674.03
2022-10-05T20:11:50.924Z,97675.28
2022-10-05T20:15:25.911Z,97684.91
2022-10-05T20:19:06.360Z,97691.03
2022-10-05T20:25:40.259Z,97691.25
2022-10-05T20:28:44.409Z,97689.19
2022-10-05T20:31:47.606Z,97688.78
2022-10-05T20:34:51.183Z,97693.31
2022-10-05T20:37:54.434Z,97697.19
2022-10-05T20:40:58.735Z,97690.88
2022-10-05T20:44:01.730Z,97706.63
2022-10-05T20:47:04.975Z,97702.13
2022-10-05T20:50:09.679Z,97704.38
2022-10-05T20:53:13.183Z,97705.00
2022-10-05T20:56:19.940Z,97705.63
2022-10-05T20:59:23.957Z,97706.66
2022-10-05T21:02:27.288Z,97710.75
2022-10-05T21:05:30.530Z,97706.06
2022-10-05T21:08:34.759Z,97716.25
2022-10-05T21:11:40.674Z,97711.34
2022-10-05T21:14:43.875Z,97715.88
2022-10-05T21:17:46.748Z,97715.47
2022-10-05T21:20:50.070Z,97716.28
2022-10-05T21:23:53.000Z,97709.09
2022-10-05T21:26:57.696Z,97714.84
2022-10-05T21:30:00.981Z,97719.72
2022-10-05T21:33:04.103Z,97729.16
2022-10-05T21:36:07.104Z,97730.34
2022-10-05T21:39:10.046Z,97714.16
2022-10-05T21:42:14.238Z,97732.19
2022-10-05T21:45:17.291Z,97734.25
2022-10-05T21:48:20.521Z,97736.09
2022-10-05T21:51:26.323Z,97738.75
2022-10-05T21:54:29.259Z,97741.59
2022-10-05T21:57:35.681Z,97753.88
2022-10-05T22:00:38.621Z,97749.78
2022-10-05T22:03:41.716Z,97754.69
2022-10-05T22:06:44.905Z,97766.75
2022-10-05T22:09:48.620Z,97757.13
2022-10-05T22:12:52.961Z,97765.09
2022-10-05T22:15:56.714Z,97771.84
2022-10-05T22:19:00.147Z,97769.41
2022-10-05T22:22:03.249Z,97771.22
2022-10-05T22:25:06.904Z,97777.56
2022-10-05T22:28:15.934Z,97771.84
2022-10-05T22:31:19.830Z,97785.13
2022-10-05T22:34:22.915Z,97779.81
2022-10-05T22:37:25.856Z,97788.19
2022-10-05T22:40:28.805Z,97796.78
2022-10-05T22:43:33.018Z,97798.00
2022-10-05T22:46:36.223Z,97806.97
2022-10-05T22:49:39.213Z,97802.88
2022-10-05T22:52:42.602Z,97804.56
2022-10-05T22:55:45.535Z,97817.59
2022-10-05T22:58:51.097Z,97815.13
2022-10-05T23:01:54.094Z,97820.91
2022-10-05T23:04:59.168Z,97816.19
2022-10-05T23:08:03.134Z,97820.69
2022-10-05T23:11:07.728Z,97821.28
2022-10-05T23:14:11.996Z,97817.59
2022-10-05T23:17:15.019Z,97820.88
2022-10-05T23:20:18.083Z,97823.72
2022-10-05T23:23:21.052Z,97823.72
2022-10-05T23:26:26.081Z,97836.78
2022-10-05T23:29:30.356Z,97822.06
2022-10-05T23:32:33.525Z,97824.13
2022-10-05T23:35:36.443Z,97822.25
2022-10-05T23:38:39.304Z,97833.50
2022-10-05T23:41:44.306Z,97838.00
2022-10-05T23:44:48.758Z,97840.84
2022-10-05T23:47:51.603Z,97845.34
2022-10-05T23:50:56.419Z,97846.38
2022-10-05T23:53:59.394Z,97844.72
2022-10-05T23:57:02.302Z,97844.09
